sensor_id;sensor_type;location;lat;lon;timestamp;P1;durP1;ratioP1;P2;durP2;ratioP2
84054;SDS011;74141;51.504;7.122;2024-01-10T00:01:54;12.55;;;4.05;;
84054;SDS011;74141;51.504;7.122;2024-01-10T00:04:20;9.63;;;4.80;;
84054;SDS011;74141;51.504;7.122;2024-01-10T00:06:45;11.15;;;5.03;;
84054;SDS011;74141;51.504;7.122;2024-01-10T00:09:10;7.70;;;4.33;;
84054;SDS011;74141;51.504;7.122;2024-01-10T00:11:36;10.23;;;4.72;;
84054;SDS011;74141;51.504;7.122;2024-01-10T00:14:01;13.00;;;6.00;;
84054;SDS011;74141;51.504;7.122;2024-01-10T00:16:28;9.57;;;5.43;;
84054;SDS011;74141;51.504;7.122;2024-01-10T00:18:53;7.88;;;4.65;;
84054;SDS011;74141;51.504;7.122;2024-01-10T00:21:19;9.23;;;5.65;;
84054;SDS011;74141;51.504;7.122;2024-01-10T00:23:44;8.70;;;4.30;;
84054;SDS011;74141;51.504;7.122;2024-01-10T00:26:09;7.82;;;5.60;;
84054;SDS011;74141;51.504;7.122;2024-01-10T00:28:34;10.37;;;5.77;;
84054;SDS011;74141;51.504;7.122;2024-01-10T00:31:00;9.63;;;5.47;;
84054;SDS011;74141;51.504;7.122;2024-01-10T00:33:25;8.30;;;5.13;;
84054;SDS011;74141;51.504;7.122;2024-01-10T00:35:51;10.93;;;5.30;;
84054;SDS011;74141;51.504;7.122;2024-01-10T00:38:16;14.73;;;6.37;;
84054;SDS011;74141;51.504;7.122;2024-01-10T00:40:41;8.13;;;5.55;;
84054;SDS011;74141;51.504;7.122;2024-01-10T00:43:07;9.75;;;5.47;;
84054;SDS011;74141;51.504;7.122;2024-01-10T00:45:32;7.88;;;5.03;;
84054;SDS011;74141;51.504;7.122;2024-01-10T00:47:57;10.90;;;5.17;;
84054;SDS011;74141;51.504;7.122;2024-01-10T00:50:23;9.20;;;5.18;;
84054;SDS011;74141;51.504;7.122;2024-01-10T00:52:48;8.25;;;4.88;;
84054;SDS011;74141;51.504;7.122;2024-01-10T00:55:13;7.90;;;4.07;;
84054;SDS011;74141;51.504;7.122;2024-01-10T00:57:39;9.07;;;4.67;;
84054;SDS011;74141;51.504;7.122;2024-01-10T01:00:05;7.40;;;4.60;;
84054;SDS011;74141;51.504;7.122;2024-01-10T01:02:31;8.00;;;5.28;;
84054;SDS011;74141;51.504;7.122;2024-01-10T01:04:56;6.75;;;3.83;;
84054;SDS011;74141;51.504;7.122;2024-01-10T01:07:21;10.17;;;4.73;;
84054;SDS011;74141;51.504;7.122;2024-01-10T01:09:47;11.70;;;5.82;;
84054;SDS011;74141;51.504;7.122;2024-01-10T01:12:12;9.13;;;4.63;;
84054;SDS011;74141;51.504;7.122;2024-01-10T01:14:37;6.53;;;4.47;;
84054;SDS011;74141;51.504;7.122;2024-01-10T01:17:02;12.38;;;5.10;;
84054;SDS011;74141;51.504;7.122;2024-01-10T01:19:28;9.33;;;4.53;;
84054;SDS011;74141;51.504;7.122;2024-01-10T01:21:53;7.50;;;4.53;;
84054;SDS011;74141;51.504;7.122;2024-01-10T01:24:18;6.77;;;4.90;;
84054;SDS011;74141;51.504;7.122;2024-01-10T01:26:43;9.40;;;4.70;;
84054;SDS011;74141;51.504;7.122;2024-01-10T01:29:09;8.70;;;5.07;;
84054;SDS011;74141;51.504;7.122;2024-01-10T01:31:34;9.65;;;5.78;;
84054;SDS011;74141;51.504;7.122;2024-01-10T01:33:59;7.60;;;5.13;;
84054;SDS011;74141;51.504;7.122;2024-01-10T01:36:25;11.63;;;4.70;;
84054;SDS011;74141;51.504;7.122;2024-01-10T01:38:50;8.93;;;5.43;;
84054;SDS011;74141;51.504;7.122;2024-01-10T01:41:15;12.63;;;6.53;;
84054;SDS011;74141;51.504;7.122;2024-01-10T01:43:41;7.85;;;4.75;;
84054;SDS011;74141;51.504;7.122;2024-01-10T01:46:06;8.60;;;5.60;;
84054;SDS011;74141;51.504;7.122;2024-01-10T01:48:32;12.63;;;6.07;;
84054;SDS011;74141;51.504;7.122;2024-01-10T01:51:00;7.15;;;5.05;;
84054;SDS011;74141;51.504;7.122;2024-01-10T01:53:29;10.73;;;5.13;;
84054;SDS011;74141;51.504;7.122;2024-01-10T01:55:55;7.38;;;4.47;;
84054;SDS011;74141;51.504;7.122;2024-01-10T01:58:21;13.93;;;6.20;;
84054;SDS011;74141;51.504;7.122;2024-01-10T02:00:47;10.95;;;6.75;;
84054;SDS011;74141;51.504;7.122;2024-01-10T02:03:13;9.98;;;5.18;;
84054;SDS011;74141;51.504;7.122;2024-01-10T02:05:39;7.28;;;5.20;;
84054;SDS011;74141;51.504;7.122;2024-01-10T02:08:13;9.13;;;5.95;;
84054;SDS011;74141;51.504;7.122;2024-01-10T02:10:39;11.52;;;6.07;;
84054;SDS011;74141;51.504;7.122;2024-01-10T02:13:14;7.28;;;5.15;;
84054;SDS011;74141;51.504;7.122;2024-01-10T02:15:40;11.80;;;5.53;;
84054;SDS011;74141;51.504;7.122;2024-01-10T02:18:14;10.77;;;5.75;;
84054;SDS011;74141;51.504;7.122;2024-01-10T02:20:42;11.00;;;5.80;;
84054;SDS011;74141;51.504;7.122;2024-01-10T02:23:14;10.25;;;5.45;;
84054;SDS011;74141;51.504;7.122;2024-01-10T02:25:40;12.85;;;5.68;;
84054;SDS011;74141;51.504;7.122;2024-01-10T02:28:11;10.10;;;6.57;;
84054;SDS011;74141;51.504;7.122;2024-01-10T02:30:37;9.40;;;5.60;;
84054;SDS011;74141;51.504;7.122;2024-01-10T02:33:11;13.52;;;6.80;;
84054;SDS011;74141;51.504;7.122;2024-01-10T02:35:36;10.23;;;6.47;;
84054;SDS011;74141;51.504;7.122;2024-01-10T02:38:14;10.20;;;6.17;;
84054;SDS011;74141;51.504;7.122;2024-01-10T02:40:39;11.77;;;6.95;;
84054;SDS011;74141;51.504;7.122;2024-01-10T02:43:14;7.07;;;4.73;;
84054;SDS011;74141;51.504;7.122;2024-01-10T02:45:39;7.20;;;4.45;;
84054;SDS011;74141;51.504;7.122;2024-01-10T02:48:13;12.77;;;5.60;;
84054;SDS011;74141;51.504;7.122;2024-01-10T02:50:38;14.57;;;7.30;;
84054;SDS011;74141;51.504;7.122;2024-01-10T02:53:13;7.35;;;5.20;;
84054;SDS011;74141;51.504;7.122;2024-01-10T02:55:38;7.43;;;4.90;;
84054;SDS011;74141;51.504;7.122;2024-01-10T02:58:12;7.43;;;4.90;;
84054;SDS011;74141;51.504;7.122;2024-01-10T03:00:37;9.40;;;4.68;;
84054;SDS011;74141;51.504;7.122;2024-01-10T03:03:03;12.55;;;7.28;;
84054;SDS011;74141;51.504;7.122;2024-01-10T03:05:28;10.27;;;4.97;;
84054;SDS011;74141;51.504;7.122;2024-01-10T03:07:54;13.18;;;7.25;;
84054;SDS011;74141;51.504;7.122;2024-01-10T03:10:19;10.63;;;5.83;;
84054;SDS011;74141;51.504;7.122;2024-01-10T03:12:44;12.67;;;5.53;;
84054;SDS011;74141;51.504;7.122;2024-01-10T03:15:09;12.47;;;5.17;;
84054;SDS011;74141;51.504;7.122;2024-01-10T03:17:35;10.55;;;6.80;;
84054;SDS011;74141;51.504;7.122;2024-01-10T03:20:01;12.77;;;5.70;;
84054;SDS011;74141;51.504;7.122;2024-01-10T03:22:27;11.45;;;6.65;;
84054;SDS011;74141;51.504;7.122;2024-01-10T03:24:52;9.50;;;5.65;;
84054;SDS011;74141;51.504;7.122;2024-01-10T03:27:17;11.17;;;6.03;;
84054;SDS011;74141;51.504;7.122;2024-01-10T03:29:42;9.53;;;4.93;;
84054;SDS011;74141;51.504;7.122;2024-01-10T03:32:08;8.85;;;5.15;;
84054;SDS011;74141;51.504;7.122;2024-01-10T03:34:33;10.03;;;5.40;;
84054;SDS011;74141;51.504;7.122;2024-01-10T03:36:58;10.25;;;6.15;;
84054;SDS011;74141;51.504;7.122;2024-01-10T03:39:24;8.67;;;5.37;;
84054;SDS011;74141;51.504;7.122;2024-01-10T03:41:49;11.17;;;5.27;;
84054;SDS011;74141;51.504;7.122;2024-01-10T03:44:14;9.47;;;5.70;;
84054;SDS011;74141;51.504;7.122;2024-01-10T03:46:39;10.30;;;6.23;;
84054;SDS011;74141;51.504;7.122;2024-01-10T03:49:05;10.00;;;5.43;;
84054;SDS011;74141;51.504;7.122;2024-01-10T03:51:30;11.73;;;5.70;;
84054;SDS011;74141;51.504;7.122;2024-01-10T03:53:55;8.53;;;4.53;;
84054;SDS011;74141;51.504;7.122;2024-01-10T03:56:21;13.23;;;6.30;;
84054;SDS011;74141;51.504;7.122;2024-01-10T03:58:46;12.85;;;6.75;;
84054;SDS011;74141;51.504;7.122;2024-01-10T04:01:13;12.88;;;7.50;;
84054;SDS011;74141;51.504;7.122;2024-01-10T04:03:39;9.10;;;5.45;;
84054;SDS011;74141;51.504;7.122;2024-01-10T04:06:07;6.68;;;5.28;;
84054;SDS011;74141;51.504;7.122;2024-01-10T04:08:32;10.60;;;5.90;;
84054;SDS011;74141;51.504;7.122;2024-01-10T04:10:57;10.52;;;5.45;;
84054;SDS011;74141;51.504;7.122;2024-01-10T04:13:23;8.43;;;5.85;;
84054;SDS011;74141;51.504;7.122;2024-01-10T04:15:48;10.30;;;5.53;;
84054;SDS011;74141;51.504;7.122;2024-01-10T04:18:14;11.40;;;6.72;;
84054;SDS011;74141;51.504;7.122;2024-01-10T04:20:39;12.10;;;6.20;;
84054;SDS011;74141;51.504;7.122;2024-01-10T04:23:04;11.83;;;7.00;;
84054;SDS011;74141;51.504;7.122;2024-01-10T04:25:30;10.80;;;6.53;;
84054;SDS011;74141;51.504;7.122;2024-01-10T04:27:55;8.65;;;5.60;;
84054;SDS011;74141;51.504;7.122;2024-01-10T04:30:22;12.30;;;6.88;;
84054;SDS011;74141;51.504;7.122;2024-01-10T04:32:47;11.45;;;7.03;;
84054;SDS011;74141;51.504;7.122;2024-01-10T04:35:13;13.00;;;6.40;;
84054;SDS011;74141;51.504;7.122;2024-01-10T04:37:38;10.37;;;5.70;;
84054;SDS011;74141;51.504;7.122;2024-01-10T04:40:04;12.52;;;6.93;;
84054;SDS011;74141;51.504;7.122;2024-01-10T04:42:30;12.05;;;6.28;;
84054;SDS011;74141;51.504;7.122;2024-01-10T04:44:55;9.10;;;4.82;;
84054;SDS011;74141;51.504;7.122;2024-01-10T04:47:21;10.57;;;5.75;;
84054;SDS011;74141;51.504;7.122;2024-01-10T04:49:46;9.43;;;4.53;;
84054;SDS011;74141;51.504;7.122;2024-01-10T04:52:12;9.55;;;4.97;;
84054;SDS011;74141;51.504;7.122;2024-01-10T04:54:37;10.63;;;5.57;;
84054;SDS011;74141;51.504;7.122;2024-01-10T04:57:03;10.15;;;6.63;;
84054;SDS011;74141;51.504;7.122;2024-01-10T04:59:28;18.73;;;6.40;;
84054;SDS011;74141;51.504;7.122;2024-01-10T05:01:54;7.10;;;4.93;;
84054;SDS011;74141;51.504;7.122;2024-01-10T05:04:19;10.93;;;5.90;;
84054;SDS011;74141;51.504;7.122;2024-01-10T05:06:44;10.93;;;6.95;;
84054;SDS011;74141;51.504;7.122;2024-01-10T05:09:10;10.23;;;5.50;;
84054;SDS011;74141;51.504;7.122;2024-01-10T05:11:35;10.83;;;7.10;;
84054;SDS011;74141;51.504;7.122;2024-01-10T05:14:02;11.23;;;6.38;;
84054;SDS011;74141;51.504;7.122;2024-01-10T05:16:27;8.38;;;5.53;;
84054;SDS011;74141;51.504;7.122;2024-01-10T05:18:53;11.25;;;4.80;;
84054;SDS011;74141;51.504;7.122;2024-01-10T05:21:18;12.03;;;6.53;;
84054;SDS011;74141;51.504;7.122;2024-01-10T05:23:44;10.48;;;5.80;;
84054;SDS011;74141;51.504;7.122;2024-01-10T05:26:09;15.17;;;6.33;;
84054;SDS011;74141;51.504;7.122;2024-01-10T05:28:35;13.80;;;7.28;;
84054;SDS011;74141;51.504;7.122;2024-01-10T05:31:00;9.93;;;5.22;;
84054;SDS011;74141;51.504;7.122;2024-01-10T05:33:26;7.18;;;4.63;;
84054;SDS011;74141;51.504;7.122;2024-01-10T05:35:51;8.50;;;4.90;;
84054;SDS011;74141;51.504;7.122;2024-01-10T05:38:17;16.00;;;6.20;;
84054;SDS011;74141;51.504;7.122;2024-01-10T05:40:42;10.73;;;5.65;;
84054;SDS011;74141;51.504;7.122;2024-01-10T05:43:07;9.73;;;5.93;;
84054;SDS011;74141;51.504;7.122;2024-01-10T05:45:33;9.25;;;5.47;;
84054;SDS011;74141;51.504;7.122;2024-01-10T05:47:58;11.43;;;6.78;;
84054;SDS011;74141;51.504;7.122;2024-01-10T05:50:24;11.85;;;6.05;;
84054;SDS011;74141;51.504;7.122;2024-01-10T05:52:49;16.20;;;7.45;;
84054;SDS011;74141;51.504;7.122;2024-01-10T05:55:14;14.52;;;6.95;;
84054;SDS011;74141;51.504;7.122;2024-01-10T05:57:40;12.88;;;5.97;;
84054;SDS011;74141;51.504;7.122;2024-01-10T06:00:05;10.13;;;6.00;;
84054;SDS011;74141;51.504;7.122;2024-01-10T06:02:38;12.75;;;6.90;;
84054;SDS011;74141;51.504;7.122;2024-01-10T06:05:07;9.93;;;6.18;;
84054;SDS011;74141;51.504;7.122;2024-01-10T06:07:34;16.58;;;7.88;;
84054;SDS011;74141;51.504;7.122;2024-01-10T06:10:02;9.38;;;6.25;;
84054;SDS011;74141;51.504;7.122;2024-01-10T06:12:28;10.40;;;5.90;;
84054;SDS011;74141;51.504;7.122;2024-01-10T06:14:54;16.35;;;6.63;;
84054;SDS011;74141;51.504;7.122;2024-01-10T06:17:19;8.60;;;5.93;;
84054;SDS011;74141;51.504;7.122;2024-01-10T06:19:45;13.25;;;6.60;;
84054;SDS011;74141;51.504;7.122;2024-01-10T06:22:10;10.33;;;6.33;;
84054;SDS011;74141;51.504;7.122;2024-01-10T06:24:38;9.30;;;5.50;;
84054;SDS011;74141;51.504;7.122;2024-01-10T06:27:04;9.30;;;5.10;;
84054;SDS011;74141;51.504;7.122;2024-01-10T06:29:31;11.35;;;6.38;;
84054;SDS011;74141;51.504;7.122;2024-01-10T06:31:56;11.25;;;6.95;;
84054;SDS011;74141;51.504;7.122;2024-01-10T06:34:22;15.25;;;8.38;;
84054;SDS011;74141;51.504;7.122;2024-01-10T06:36:48;15.90;;;7.20;;
84054;SDS011;74141;51.504;7.122;2024-01-10T06:39:13;13.27;;;6.20;;
84054;SDS011;74141;51.504;7.122;2024-01-10T06:41:39;11.73;;;6.07;;
84054;SDS011;74141;51.504;7.122;2024-01-10T06:44:04;12.65;;;6.05;;
84054;SDS011;74141;51.504;7.122;2024-01-10T06:46:30;12.48;;;5.82;;
84054;SDS011;74141;51.504;7.122;2024-01-10T06:48:56;15.63;;;7.40;;
84054;SDS011;74141;51.504;7.122;2024-01-10T06:51:22;10.95;;;6.55;;
84054;SDS011;74141;51.504;7.122;2024-01-10T06:53:48;16.58;;;6.43;;
84054;SDS011;74141;51.504;7.122;2024-01-10T06:56:13;9.20;;;5.78;;
84054;SDS011;74141;51.504;7.122;2024-01-10T06:58:38;13.02;;;7.18;;
84054;SDS011;74141;51.504;7.122;2024-01-10T07:01:04;14.15;;;8.48;;
84054;SDS011;74141;51.504;7.122;2024-01-10T07:03:30;11.88;;;7.22;;
84054;SDS011;74141;51.504;7.122;2024-01-10T07:05:59;9.57;;;6.32;;
84054;SDS011;74141;51.504;7.122;2024-01-10T07:08:25;15.27;;;5.75;;
84054;SDS011;74141;51.504;7.122;2024-01-10T07:10:51;11.38;;;6.82;;
84054;SDS011;74141;51.504;7.122;2024-01-10T07:13:16;11.67;;;5.77;;
84054;SDS011;74141;51.504;7.122;2024-01-10T07:15:42;11.23;;;5.35;;
84054;SDS011;74141;51.504;7.122;2024-01-10T07:18:07;12.60;;;6.32;;
84054;SDS011;74141;51.504;7.122;2024-01-10T07:20:33;12.07;;;7.03;;
84054;SDS011;74141;51.504;7.122;2024-01-10T07:22:58;13.67;;;8.00;;
84054;SDS011;74141;51.504;7.122;2024-01-10T07:25:24;14.30;;;7.60;;
84054;SDS011;74141;51.504;7.122;2024-01-10T07:27:50;16.08;;;7.72;;
84054;SDS011;74141;51.504;7.122;2024-01-10T07:30:16;10.45;;;5.10;;
84054;SDS011;74141;51.504;7.122;2024-01-10T07:32:45;16.13;;;6.68;;
84054;SDS011;74141;51.504;7.122;2024-01-10T07:35:11;14.30;;;6.55;;
84054;SDS011;74141;51.504;7.122;2024-01-10T07:37:38;12.35;;;6.40;;
84054;SDS011;74141;51.504;7.122;2024-01-10T07:40:04;14.25;;;7.03;;
84054;SDS011;74141;51.504;7.122;2024-01-10T07:42:34;16.27;;;7.55;;
84054;SDS011;74141;51.504;7.122;2024-01-10T07:45:00;12.48;;;7.20;;
84054;SDS011;74141;51.504;7.122;2024-01-10T07:47:29;12.68;;;8.00;;
84054;SDS011;74141;51.504;7.122;2024-01-10T07:49:54;17.60;;;8.25;;
84054;SDS011;74141;51.504;7.122;2024-01-10T07:52:19;12.07;;;6.87;;
84054;SDS011;74141;51.504;7.122;2024-01-10T07:54:45;8.37;;;4.73;;
84054;SDS011;74141;51.504;7.122;2024-01-10T07:57:10;15.10;;;8.13;;
84054;SDS011;74141;51.504;7.122;2024-01-10T07:59:36;13.07;;;6.97;;
84054;SDS011;74141;51.504;7.122;2024-01-10T08:02:01;18.17;;;8.87;;
84054;SDS011;74141;51.504;7.122;2024-01-10T08:04:27;15.32;;;6.05;;
84054;SDS011;74141;51.504;7.122;2024-01-10T08:06:52;23.13;;;13.43;;
84054;SDS011;74141;51.504;7.122;2024-01-10T08:09:18;10.10;;;6.07;;
84054;SDS011;74141;51.504;7.122;2024-01-10T08:11:44;18.92;;;7.85;;
84054;SDS011;74141;51.504;7.122;2024-01-10T08:14:10;12.90;;;8.93;;
84054;SDS011;74141;51.504;7.122;2024-01-10T08:16:35;15.18;;;9.15;;
84054;SDS011;74141;51.504;7.122;2024-01-10T08:19:00;16.42;;;9.32;;
84054;SDS011;74141;51.504;7.122;2024-01-10T08:21:25;15.90;;;9.88;;
84054;SDS011;74141;51.504;7.122;2024-01-10T08:23:51;13.47;;;6.80;;
84054;SDS011;74141;51.504;7.122;2024-01-10T08:26:16;16.17;;;7.67;;
84054;SDS011;74141;51.504;7.122;2024-01-10T08:28:41;19.30;;;8.10;;
84054;SDS011;74141;51.504;7.122;2024-01-10T08:31:07;19.05;;;10.57;;
84054;SDS011;74141;51.504;7.122;2024-01-10T08:33:33;10.55;;;5.85;;
84054;SDS011;74141;51.504;7.122;2024-01-10T08:35:59;16.08;;;9.13;;
84054;SDS011;74141;51.504;7.122;2024-01-10T08:38:24;19.92;;;10.52;;
84054;SDS011;74141;51.504;7.122;2024-01-10T08:40:49;13.40;;;7.50;;
84054;SDS011;74141;51.504;7.122;2024-01-10T08:43:14;15.80;;;8.20;;
84054;SDS011;74141;51.504;7.122;2024-01-10T08:45:40;25.90;;;9.93;;
84054;SDS011;74141;51.504;7.122;2024-01-10T08:48:05;18.23;;;10.07;;
84054;SDS011;74141;51.504;7.122;2024-01-10T08:50:32;20.50;;;9.27;;
84054;SDS011;74141;51.504;7.122;2024-01-10T08:52:58;17.98;;;9.85;;
84054;SDS011;74141;51.504;7.122;2024-01-10T08:55:24;22.08;;;10.98;;
84054;SDS011;74141;51.504;7.122;2024-01-10T08:57:49;14.95;;;8.88;;
84054;SDS011;74141;51.504;7.122;2024-01-10T09:00:15;22.02;;;9.68;;
84054;SDS011;74141;51.504;7.122;2024-01-10T09:02:41;17.65;;;9.98;;
84054;SDS011;74141;51.504;7.122;2024-01-10T09:05:07;19.90;;;9.15;;
84054;SDS011;74141;51.504;7.122;2024-01-10T09:07:35;19.63;;;9.75;;
84054;SDS011;74141;51.504;7.122;2024-01-10T09:10:01;15.75;;;9.88;;
84054;SDS011;74141;51.504;7.122;2024-01-10T09:12:26;21.13;;;11.48;;
84054;SDS011;74141;51.504;7.122;2024-01-10T09:14:51;21.67;;;11.50;;
84054;SDS011;74141;51.504;7.122;2024-01-10T09:17:17;18.65;;;10.50;;
84054;SDS011;74141;51.504;7.122;2024-01-10T09:19:42;18.67;;;10.67;;
84054;SDS011;74141;51.504;7.122;2024-01-10T09:22:07;20.70;;;10.53;;
84054;SDS011;74141;51.504;7.122;2024-01-10T09:24:32;21.87;;;9.47;;
84054;SDS011;74141;51.504;7.122;2024-01-10T09:26:58;23.50;;;11.83;;
84054;SDS011;74141;51.504;7.122;2024-01-10T09:29:23;17.50;;;9.60;;
84054;SDS011;74141;51.504;7.122;2024-01-10T09:31:50;20.73;;;11.00;;
84054;SDS011;74141;51.504;7.122;2024-01-10T09:34:16;19.10;;;10.30;;
84054;SDS011;74141;51.504;7.122;2024-01-10T09:36:41;17.52;;;9.60;;
84054;SDS011;74141;51.504;7.122;2024-01-10T09:39:07;25.73;;;9.82;;
84054;SDS011;74141;51.504;7.122;2024-01-10T09:41:39;23.23;;;10.45;;
84054;SDS011;74141;51.504;7.122;2024-01-10T09:44:10;22.60;;;10.30;;
84054;SDS011;74141;51.504;7.122;2024-01-10T09:46:36;22.42;;;10.57;;
84054;SDS011;74141;51.504;7.122;2024-01-10T09:49:05;22.88;;;10.82;;
84054;SDS011;74141;51.504;7.122;2024-01-10T09:51:31;15.48;;;9.65;;
84054;SDS011;74141;51.504;7.122;2024-01-10T09:53:58;20.65;;;10.50;;
84054;SDS011;74141;51.504;7.122;2024-01-10T09:56:27;18.80;;;11.50;;
84054;SDS011;74141;51.504;7.122;2024-01-10T09:58:52;22.70;;;10.88;;
84054;SDS011;74141;51.504;7.122;2024-01-10T10:01:20;21.52;;;11.07;;
84054;SDS011;74141;51.504;7.122;2024-01-10T10:03:46;24.55;;;12.55;;
84054;SDS011;74141;51.504;7.122;2024-01-10T10:06:14;20.67;;;8.82;;
84054;SDS011;74141;51.504;7.122;2024-01-10T10:08:40;20.17;;;10.85;;
84054;SDS011;74141;51.504;7.122;2024-01-10T10:11:06;22.23;;;12.05;;
84054;SDS011;74141;51.504;7.122;2024-01-10T10:13:32;26.85;;;13.85;;
84054;SDS011;74141;51.504;7.122;2024-01-10T10:16:00;24.60;;;14.10;;
84054;SDS011;74141;51.504;7.122;2024-01-10T10:18:27;26.45;;;13.88;;
84054;SDS011;74141;51.504;7.122;2024-01-10T10:21:11;22.92;;;13.15;;
84054;SDS011;74141;51.504;7.122;2024-01-10T10:23:39;22.73;;;11.23;;
84054;SDS011;74141;51.504;7.122;2024-01-10T10:26:11;20.45;;;11.40;;
84054;SDS011;74141;51.504;7.122;2024-01-10T10:28:44;19.77;;;11.02;;
84054;SDS011;74141;51.504;7.122;2024-01-10T10:31:09;22.02;;;12.05;;
84054;SDS011;74141;51.504;7.122;2024-01-10T10:33:35;26.38;;;12.07;;
84054;SDS011;74141;51.504;7.122;2024-01-10T10:36:01;28.85;;;11.30;;
84054;SDS011;74141;51.504;7.122;2024-01-10T10:38:26;30.90;;;14.60;;
84054;SDS011;74141;51.504;7.122;2024-01-10T10:40:51;26.70;;;14.90;;
84054;SDS011;74141;51.504;7.122;2024-01-10T10:43:18;16.85;;;10.50;;
84054;SDS011;74141;51.504;7.122;2024-01-10T10:45:49;18.52;;;10.73;;
84054;SDS011;74141;51.504;7.122;2024-01-10T10:48:16;24.55;;;13.95;;
84054;SDS011;74141;51.504;7.122;2024-01-10T10:50:43;22.52;;;11.10;;
84054;SDS011;74141;51.504;7.122;2024-01-10T10:53:23;20.42;;;11.93;;
84054;SDS011;74141;51.504;7.122;2024-01-10T10:55:52;21.02;;;13.05;;
84054;SDS011;74141;51.504;7.122;2024-01-10T10:58:18;24.88;;;13.20;;
84054;SDS011;74141;51.504;7.122;2024-01-10T11:00:44;26.23;;;12.83;;
84054;SDS011;74141;51.504;7.122;2024-01-10T11:03:11;26.00;;;13.68;;
84054;SDS011;74141;51.504;7.122;2024-01-10T11:05:38;22.33;;;12.55;;
84054;SDS011;74141;51.504;7.122;2024-01-10T11:08:05;23.90;;;12.00;;
84054;SDS011;74141;51.504;7.122;2024-01-10T11:10:36;23.27;;;13.85;;
84054;SDS011;74141;51.504;7.122;2024-01-10T11:13:21;20.85;;;9.10;;
84054;SDS011;74141;51.504;7.122;2024-01-10T11:21:45;19.83;;;10.68;;
84054;SDS011;74141;51.504;7.122;2024-01-10T11:24:34;27.88;;;12.77;;
84054;SDS011;74141;51.504;7.122;2024-01-10T11:27:14;29.60;;;15.35;;
84054;SDS011;74141;51.504;7.122;2024-01-10T11:29:40;24.40;;;13.20;;
84054;SDS011;74141;51.504;7.122;2024-01-10T11:32:07;24.50;;;13.43;;
84054;SDS011;74141;51.504;7.122;2024-01-10T11:34:38;27.17;;;13.85;;
84054;SDS011;74141;51.504;7.122;2024-01-10T11:37:10;26.17;;;13.43;;
84054;SDS011;74141;51.504;7.122;2024-01-10T11:39:41;36.85;;;11.85;;
84054;SDS011;74141;51.504;7.122;2024-01-10T11:42:10;24.77;;;11.82;;
84054;SDS011;74141;51.504;7.122;2024-01-10T11:44:48;24.23;;;13.52;;
84054;SDS011;74141;51.504;7.122;2024-01-10T11:47:14;22.35;;;10.50;;
84054;SDS011;74141;51.504;7.122;2024-01-10T11:49:40;19.08;;;10.77;;
84054;SDS011;74141;51.504;7.122;2024-01-10T11:54:42;26.50;;;11.90;;
84054;SDS011;74141;51.504;7.122;2024-01-10T11:59:45;19.05;;;10.93;;
84054;SDS011;74141;51.504;7.122;2024-01-10T12:02:11;22.23;;;12.68;;
84054;SDS011;74141;51.504;7.122;2024-01-10T12:04:37;24.38;;;11.65;;
84054;SDS011;74141;51.504;7.122;2024-01-10T12:07:03;22.13;;;11.15;;
84054;SDS011;74141;51.504;7.122;2024-01-10T12:09:30;22.73;;;12.00;;
84054;SDS011;74141;51.504;7.122;2024-01-10T12:11:55;25.23;;;13.57;;
84054;SDS011;74141;51.504;7.122;2024-01-10T12:14:21;20.80;;;10.43;;
84054;SDS011;74141;51.504;7.122;2024-01-10T12:16:47;20.70;;;11.98;;
84054;SDS011;74141;51.504;7.122;2024-01-10T12:19:12;22.35;;;13.70;;
84054;SDS011;74141;51.504;7.122;2024-01-10T12:21:37;19.60;;;11.50;;
84054;SDS011;74141;51.504;7.122;2024-01-10T12:24:03;21.13;;;11.87;;
84054;SDS011;74141;51.504;7.122;2024-01-10T12:26:30;21.98;;;12.02;;
84054;SDS011;74141;51.504;7.122;2024-01-10T12:28:56;22.43;;;11.07;;
84054;SDS011;74141;51.504;7.122;2024-01-10T12:31:23;19.73;;;11.50;;
84054;SDS011;74141;51.504;7.122;2024-01-10T12:33:51;21.33;;;11.25;;
84054;SDS011;74141;51.504;7.122;2024-01-10T12:36:17;21.40;;;10.85;;
84054;SDS011;74141;51.504;7.122;2024-01-10T12:38:43;21.23;;;11.32;;
84054;SDS011;74141;51.504;7.122;2024-01-10T12:41:12;24.48;;;10.70;;
84054;SDS011;74141;51.504;7.122;2024-01-10T12:43:39;25.60;;;12.52;;
84054;SDS011;74141;51.504;7.122;2024-01-10T12:46:08;28.20;;;10.93;;
84054;SDS011;74141;51.504;7.122;2024-01-10T12:48:38;15.05;;;7.57;;
84054;SDS011;74141;51.504;7.122;2024-01-10T12:51:08;21.25;;;10.93;;
84054;SDS011;74141;51.504;7.122;2024-01-10T12:53:34;18.63;;;10.90;;
84054;SDS011;74141;51.504;7.122;2024-01-10T12:56:02;21.25;;;12.45;;
84054;SDS011;74141;51.504;7.122;2024-01-10T12:58:28;19.60;;;10.43;;
84054;SDS011;74141;51.504;7.122;2024-01-10T13:00:54;19.17;;;10.43;;
84054;SDS011;74141;51.504;7.122;2024-01-10T13:03:20;21.05;;;11.52;;
84054;SDS011;74141;51.504;7.122;2024-01-10T13:05:45;21.55;;;11.38;;
84054;SDS011;74141;51.504;7.122;2024-01-10T13:08:11;20.95;;;10.95;;
84054;SDS011;74141;51.504;7.122;2024-01-10T13:10:37;25.38;;;13.38;;
84054;SDS011;74141;51.504;7.122;2024-01-10T13:13:06;21.38;;;12.45;;
84054;SDS011;74141;51.504;7.122;2024-01-10T13:15:31;23.80;;;11.75;;
84054;SDS011;74141;51.504;7.122;2024-01-10T13:17:56;21.33;;;10.00;;
84054;SDS011;74141;51.504;7.122;2024-01-10T13:20:22;26.88;;;14.85;;
84054;SDS011;74141;51.504;7.122;2024-01-10T13:22:49;23.95;;;12.30;;
84054;SDS011;74141;51.504;7.122;2024-01-10T13:25:15;20.85;;;11.57;;
84054;SDS011;74141;51.504;7.122;2024-01-10T13:27:41;23.17;;;10.70;;
84054;SDS011;74141;51.504;7.122;2024-01-10T13:30:06;22.55;;;11.45;;
84054;SDS011;74141;51.504;7.122;2024-01-10T13:32:32;24.52;;;11.68;;
84054;SDS011;74141;51.504;7.122;2024-01-10T13:34:57;22.20;;;12.50;;
84054;SDS011;74141;51.504;7.122;2024-01-10T13:37:22;19.13;;;10.60;;
84054;SDS011;74141;51.504;7.122;2024-01-10T13:39:48;18.33;;;10.57;;
84054;SDS011;74141;51.504;7.122;2024-01-10T13:42:13;20.65;;;11.82;;
84054;SDS011;74141;51.504;7.122;2024-01-10T13:44:39;21.30;;;11.75;;
84054;SDS011;74141;51.504;7.122;2024-01-10T13:47:05;19.83;;;9.52;;
84054;SDS011;74141;51.504;7.122;2024-01-10T13:49:30;20.30;;;11.57;;
84054;SDS011;74141;51.504;7.122;2024-01-10T13:51:55;23.60;;;13.52;;
84054;SDS011;74141;51.504;7.122;2024-01-10T13:54:21;20.80;;;10.98;;
84054;SDS011;74141;51.504;7.122;2024-01-10T13:56:46;26.73;;;12.25;;
84054;SDS011;74141;51.504;7.122;2024-01-10T13:59:12;21.60;;;11.95;;
84054;SDS011;74141;51.504;7.122;2024-01-10T14:01:37;20.35;;;10.85;;
84054;SDS011;74141;51.504;7.122;2024-01-10T14:04:03;21.48;;;11.32;;
84054;SDS011;74141;51.504;7.122;2024-01-10T14:06:28;22.95;;;10.35;;
84054;SDS011;74141;51.504;7.122;2024-01-10T14:08:54;24.00;;;11.88;;
84054;SDS011;74141;51.504;7.122;2024-01-10T14:11:19;23.50;;;11.55;;
84054;SDS011;74141;51.504;7.122;2024-01-10T14:13:44;20.95;;;10.27;;
84054;SDS011;74141;51.504;7.122;2024-01-10T14:16:10;19.98;;;10.52;;
84054;SDS011;74141;51.504;7.122;2024-01-10T14:18:36;21.52;;;10.98;;
84054;SDS011;74141;51.504;7.122;2024-01-10T14:21:01;22.70;;;11.02;;
84054;SDS011;74141;51.504;7.122;2024-01-10T14:23:27;20.17;;;10.85;;
84054;SDS011;74141;51.504;7.122;2024-01-10T14:25:52;20.15;;;10.93;;
84054;SDS011;74141;51.504;7.122;2024-01-10T14:28:18;22.23;;;12.38;;
84054;SDS011;74141;51.504;7.122;2024-01-10T14:30:45;24.95;;;10.93;;
84054;SDS011;74141;51.504;7.122;2024-01-10T14:33:11;19.63;;;10.40;;
84054;SDS011;74141;51.504;7.122;2024-01-10T14:35:38;30.02;;;11.27;;
84054;SDS011;74141;51.504;7.122;2024-01-10T14:38:07;21.77;;;11.25;;
84054;SDS011;74141;51.504;7.122;2024-01-10T14:40:32;21.63;;;11.80;;